createdAt,value
2022-10-03T00:02:00.314Z,9.30
2022-10-03T00:04:38.731Z,9.20
2022-10-03T00:07:13.479Z,9.20
2022-10-03T00:10:08.357Z,9.20
2022-10-03T00:12:40.735Z,9.10
2022-10-03T00:15:24.676Z,9.10
2022-10-03T00:18:20.072Z,9.10
2022-10-03T00:20:52.556Z,9.10
2022-10-03T00:23:56.732Z,9.10
2022-10-03T00:26:49.540Z,9.10
2022-10-03T00:29:23.176Z,9.00
2022-10-03T00:32:05.330Z,9.00
2022-10-03T00:34:56.580Z,9.00
2022-10-03T00:37:58.553Z,8.90
2022-10-03T00:40:51.186Z,8.90
2022-10-03T00:43:48.876Z,8.90
2022-10-03T00:46:22.656Z,8.90
2022-10-03T00:49:22.920Z,8.90
2022-10-03T00:52:02.449Z,8.80
2022-10-03T00:54:50.020Z,8.80
2022-10-03T00:57:32.475Z,8.70
2022-10-03T01:00:31.412Z,8.70
2022-10-03T01:02:57.984Z,8.70
2022-10-03T01:05:30.056Z,8.70
2022-10-03T01:08:28.480Z,8.60
2022-10-03T01:11:02.859Z,8.70
2022-10-03T01:13:57.795Z,8.70
2022-10-03T01:16:52.252Z,8.60
2022-10-03T01:19:43.651Z,8.50
2022-10-03T01:22:28.831Z,8.50
2022-10-03T01:25:05.413Z,8.50
2022-10-03T01:27:44.308Z,8.50
2022-10-03T01:30:13.323Z,8.50
2022-10-03T01:32:50.785Z,8.50
2022-10-03T01:35:38.851Z,8.50
2022-10-03T01:38:16.014Z,8.50
2022-10-03T01:40:54.808Z,8.50
2022-10-03T01:43:45.161Z,8.50
2022-10-03T01:46:15.989Z,8.50
2022-10-03T01:49:08.862Z,8.50
2022-10-03T01:52:03.249Z,8.50
2022-10-03T01:54:50.500Z,8.40
2022-10-03T01:57:33.125Z,8.40
2022-10-03T02:00:13.975Z,8.40
2022-10-03T02:03:04.076Z,8.40
2022-10-03T02:06:04.927Z,8.40
2022-10-03T02:08:47.796Z,8.40
2022-10-03T02:11:29.972Z,8.40
2022-10-03T02:14:25.846Z,8.30
2022-10-03T02:16:55.835Z,8.30
2022-10-03T02:19:42.844Z,8.30
2022-10-03T02:22:45.082Z,8.30
2022-10-03T02:25:25.594Z,8.20
2022-10-03T02:28:22.704Z,8.20
2022-10-03T02:31:04.947Z,8.20
2022-10-03T02:33:46.629Z,8.20
2022-10-03T02:36:24.715Z,8.10
2022-10-03T02:39:01.639Z,8.10
2022-10-03T02:41:51.405Z,8.10
2022-10-03T02:44:39.013Z,8.00
2022-10-03T02:47:24.959Z,8.00
2022-10-03T02:50:21.924Z,8.00
2022-10-03T02:53:13.046Z,8.00
2022-10-03T02:55:58.493Z,8.00
2022-10-03T02:59:09.940Z,8.00
2022-10-03T03:02:17.092Z,8.00
2022-10-03T03:05:12.705Z,8.00
2022-10-03T03:07:55.926Z,8.00
2022-10-03T03:10:56.453Z,8.00
2022-10-03T03:13:41.331Z,8.00
2022-10-03T03:16:26.581Z,7.90
2022-10-03T03:18:59.422Z,7.90
2022-10-03T03:22:01.268Z,7.90
2022-10-03T03:24:46.702Z,7.90
2022-10-03T03:27:51.802Z,7.90
2022-10-03T03:30:22.361Z,7.80
2022-10-03T03:32:51.847Z,7.80
2022-10-03T03:35:29.118Z,7.80
2022-10-03T03:38:16.663Z,7.80
2022-10-03T03:41:01.885Z,7.80
2022-10-03T03:43:46.704Z,7.80
2022-10-03T03:46:16.113Z,7.70
2022-10-03T03:49:03.749Z,7.70
2022-10-03T03:51:55.611Z,7.70
2022-10-03T03:54:44.864Z,7.70
2022-10-03T03:57:37.729Z,7.70
2022-10-03T04:00:13.206Z,7.70
2022-10-03T04:03:00.643Z,7.60
2022-10-03T04:05:39.789Z,7.60
2022-10-03T04:08:19.420Z,7.60
2022-10-03T04:10:55.674Z,7.50
2022-10-03T04:13:59.823Z,7.50
2022-10-03T04:16:52.825Z,7.50
2022-10-03T04:19:34.155Z,7.40
2022-10-03T04:22:38.388Z,7.40
2022-10-03T04:25:14.080Z,7.40
2022-10-03T04:28:08.218Z,7.40
2022-10-03T04:31:12.054Z,7.40
2022-10-03T04:33:47.539Z,7.40
2022-10-03T04:36:48.925Z,7.40
2022-10-03T04:39:41.565Z,7.30
2022-10-03T04:42:25.843Z,7.30
2022-10-03T04:45:09.142Z,7.40
2022-10-03T04:48:12.563Z,7.40
2022-10-03T04:51:08.476Z,7.30
2022-10-03T04:54:11.094Z,7.30
2022-10-03T04:56:59.543Z,7.30
2022-10-03T04:59:34.413Z,7.20
2022-10-03T05:02:31.448Z,7.20
2022-10-03T05:05:08.688Z,7.20
2022-10-03T05:07:51.371Z,7.20
2022-10-03T05:10:40.496Z,7.20
2022-10-03T05:13:25.343Z,7.20
2022-10-03T05:16:13.923Z,7.20
2022-10-03T05:18:46.580Z,7.10
2022-10-03T05:21:55.165Z,7.10
2022-10-03T05:25:10.190Z,7.10
2022-10-03T05:27:39.534Z,7.10
2022-10-03T05:30:33.710Z,7.10
2022-10-03T05:33:31.616Z,7.10
2022-10-03T05:36:09.097Z,7.10
2022-10-03T05:38:41.686Z,7.00
2022-10-03T05:41:17.258Z,7.00
2022-10-03T05:44:11.771Z,7.00
2022-10-03T05:47:13.600Z,7.00
2022-10-03T05:53:18.066Z,7.10
2022-10-03T05:56:21.598Z,7.10
2022-10-03T05:58:57.522Z,7.20
2022-10-03T06:01:59.903Z,7.20
2022-10-03T06:05:04.060Z,7.30
2022-10-03T06:08:25.847Z,7.30
2022-10-03T06:11:30.266Z,7.50
2022-10-03T06:14:33.117Z,7.60
2022-10-03T06:17:34.675Z,7.80
2022-10-03T06:26:49.839Z,8.20
2022-10-03T06:29:43.321Z,8.40
2022-10-03T06:39:22.273Z,8.70
2022-10-03T06:42:22.117Z,8.80
2022-10-03T06:45:31.150Z,8.90
2022-10-03T06:48:01.061Z,8.90
2022-10-03T06:51:00.764Z,9.00
2022-10-03T06:54:01.835Z,9.10
2022-10-03T06:57:05.833Z,9.20
2022-10-03T07:00:09.847Z,9.30
2022-10-03T07:03:10.727Z,9.40
2022-10-03T07:06:14.938Z,9.50
2022-10-03T07:09:24.830Z,9.70
2022-10-03T07:12:02.916Z,9.80
2022-10-03T07:15:06.986Z,9.90
2022-10-03T07:21:37.330Z,10.10
2022-10-03T07:30:25.192Z,10.40
2022-10-03T07:33:28.753Z,10.50
2022-10-03T07:36:31.657Z,10.50
2022-10-03T07:39:31.792Z,10.60
2022-10-03T07:45:40.663Z,10.80
2022-10-03T07:51:52.491Z,10.90
2022-10-03T07:55:13.569Z,10.90
2022-10-03T07:58:18.194Z,11.00
2022-10-03T08:01:26.627Z,11.00
2022-10-03T08:04:27.618Z,11.00
2022-10-03T08:07:47.473Z,11.10
2022-10-03T08:11:02.600Z,11.10
2022-10-03T08:29:52.481Z,11.70
2022-10-03T08:40:18.387Z,12.20
2022-10-03T08:50:41.060Z,12.60
2022-10-03T08:52:14.227Z,12.80
2022-10-03T09:05:32.896Z,13.40
2022-10-03T09:09:09.103Z,13.60
2022-10-03T09:18:53.437Z,14.10
2022-10-03T09:21:50.820Z,14.20
2022-10-03T09:24:48.794Z,14.30
2022-10-03T09:27:47.254Z,14.40
2022-10-03T09:33:52.822Z,14.60
2022-10-03T09:36:47.797Z,14.70
2022-10-03T09:39:51.645Z,14.70
2022-10-03T09:42:57.259Z,14.70
2022-10-03T09:45:57.803Z,14.60
2022-10-03T09:48:36.909Z,14.70
2022-10-03T09:51:25.069Z,14.70
2022-10-03T09:54:39.302Z,14.70
2022-10-03T09:57:23.009Z,14.80
2022-10-03T10:00:15.656Z,14.80
2022-10-03T10:03:11.078Z,14.90
2022-10-03T10:06:08.497Z,15.00
2022-10-03T10:09:12.629Z,15.10
2022-10-03T10:12:12.566Z,15.30
2022-10-03T10:21:45.401Z,15.90
2022-10-03T10:24:48.940Z,16.10
2022-10-03T10:38:25.457Z,16.20
2022-10-03T10:41:29.731Z,16.60
2022-10-03T10:44:30.219Z,16.80
2022-10-03T10:47:31.207Z,16.80
2022-10-03T10:50:12.291Z,17.00
2022-10-03T10:52:38.840Z,17.10
2022-10-03T10:55:46.301Z,17.20
2022-10-03T10:58:50.194Z,17.10
2022-10-03T11:09:25.494Z,17.30
2022-10-03T11:12:35.867Z,17.20
2022-10-03T11:15:30.140Z,17.20
2022-10-03T11:18:29.504Z,17.30
2022-10-03T11:21:30.992Z,17.30
2022-10-03T11:24:34.008Z,17.40
2022-10-03T11:27:38.034Z,17.60
2022-10-03T11:30:19.262Z,17.70
2022-10-03T11:33:10.917Z,17.70
2022-10-03T11:36:15.096Z,17.80
2022-10-03T11:39:17.218Z,17.70
2022-10-03T11:45:22.292Z,17.80
2022-10-03T11:48:23.790Z,17.70
2022-10-03T11:51:29.351Z,17.70
2022-10-03T11:54:32.559Z,17.70
2022-10-03T11:57:19.597Z,17.70
2022-10-03T12:00:28.238Z,17.60
2022-10-03T12:03:15.661Z,17.60
2022-10-03T12:09:07.274Z,17.70
2022-10-03T12:11:58.568Z,17.70
2022-10-03T12:14:34.647Z,17.80
2022-10-03T12:17:04.246Z,17.70
2022-10-03T12:19:36.386Z,17.60
2022-10-03T12:25:13.984Z,17.60
2022-10-03T12:31:21.658Z,17.50
2022-10-03T12:34:18.809Z,17.50
2022-10-03T12:36:48.955Z,17.40
2022-10-03T12:39:53.303Z,17.40
2022-10-03T12:42:50.051Z,17.30
2022-10-03T12:45:56.627Z,17.20
2022-10-03T12:49:30.041Z,17.10
2022-10-03T12:52:31.452Z,17.10
2022-10-03T12:59:18.677Z,16.90
2022-10-03T13:01:52.888Z,16.80
2022-10-03T13:04:50.975Z,16.80
2022-10-03T13:07:17.752Z,16.90
2022-10-03T13:09:59.493Z,16.90
2022-10-03T13:12:57.010Z,16.90
2022-10-03T13:19:21.988Z,16.90
2022-10-03T13:27:07.278Z,17.00
2022-10-03T13:32:04.444Z,17.00
2022-10-03T13:41:42.523Z,16.90
2022-10-03T13:44:43.368Z,16.80
2022-10-03T13:47:58.042Z,16.70
2022-10-03T13:54:23.564Z,16.70
2022-10-03T13:57:31.557Z,16.70
2022-10-03T14:03:19.689Z,16.80
2022-10-03T14:06:22.905Z,16.80
2022-10-03T14:16:19.209Z,16.60
2022-10-03T14:21:56.461Z,16.50
2022-10-03T14:35:06.619Z,16.40
2022-10-03T14:38:06.637Z,16.40
2022-10-03T14:40:50.784Z,16.40
2022-10-03T14:43:57.146Z,16.40
2022-10-03T14:52:40.002Z,16.30
2022-10-03T14:55:44.973Z,16.40
2022-10-03T14:58:40.056Z,16.40
2022-10-03T15:07:47.143Z,16.50
2022-10-03T15:10:21.924Z,16.50
2022-10-03T15:12:55.815Z,16.40
2022-10-03T15:15:29.541Z,16.40
2022-10-03T15:18:01.047Z,16.30
2022-10-03T15:20:36.329Z,16.20
2022-10-03T15:23:38.770Z,16.20
2022-10-03T15:29:16.136Z,16.10
2022-10-03T15:31:46.366Z,16.10
2022-10-03T15:34:19.875Z,16.10
2022-10-03T15:36:53.369Z,16.10
2022-10-03T15:39:49.979Z,16.10
2022-10-03T15:42:23.433Z,16.10
2022-10-03T15:45:00.464Z,16.10
2022-10-03T15:47:30.063Z,16.10
2022-10-03T15:50:02.567Z,16.00
2022-10-03T15:52:38.225Z,16.00
2022-10-03T15:55:11.778Z,15.90
2022-10-03T16:01:33.376Z,15.90
2022-10-03T16:04:06.654Z,15.90
2022-10-03T16:07:06.535Z,15.80
2022-10-03T16:10:07.625Z,15.80
2022-10-03T16:12:57.473Z,15.80
2022-10-03T16:15:27.313Z,15.70
2022-10-03T16:18:24.920Z,15.70
2022-10-03T16:20:59.737Z,15.60
2022-10-03T16:23:33.967Z,15.60
2022-10-03T16:34:52.146Z,15.30
2022-10-03T16:36:18.762Z,15.20
2022-10-03T16:41:57.082Z,15.10
2022-10-03T16:45:03.167Z,15.00
2022-10-03T16:48:02.804Z,15.00
2022-10-03T16:50:40.769Z,14.90
2022-10-03T16:56:34.999Z,14.80
2022-10-03T16:59:22.202Z,14.70
2022-10-03T17:02:31.058Z,14.70
2022-10-03T17:07:52.187Z,14.60
2022-10-03T17:10:38.551Z,14.60
2022-10-03T17:13:16.565Z,14.50
2022-10-03T17:19:27.621Z,14.40
2022-10-03T17:21:58.060Z,14.40
2022-10-03T17:24:35.358Z,14.40
2022-10-03T17:27:09.868Z,14.40
2022-10-03T17:29:56.156Z,14.40
2022-10-03T17:32:45.305Z,14.40
2022-10-03T17:35:45.071Z,14.30
2022-10-03T17:38:49.268Z,14.30
2022-10-03T17:41:51.197Z,14.20
2022-10-03T17:44:36.645Z,14.10
2022-10-03T17:47:46.278Z,14.00
2022-10-03T17:50:19.359Z,13.90
2022-10-03T17:52:48.881Z,13.80
2022-10-03T17:55:29.636Z,13.80
2022-10-03T17:58:03.216Z,13.70
2022-10-03T18:00:46.273Z,13.70
2022-10-03T18:03:37.078Z,13.60
2022-10-03T18:06:29.664Z,13.60
2022-10-03T18:08:57.058Z,13.60
2022-10-03T18:11:27.437Z,13.60
2022-10-03T18:14:09.650Z,13.60
2022-10-03T18:16:38.202Z,13.60
2022-10-03T18:19:32.708Z,13.50
2022-10-03T18:22:21.166Z,13.50
2022-10-03T18:25:07.672Z,13.40
2022-10-03T18:28:05.705Z,13.30
2022-10-03T18:31:00.130Z,13.30
2022-10-03T18:33:44.866Z,13.20
2022-10-03T18:36:21.018Z,13.20
2022-10-03T18:38:49.899Z,13.10
2022-10-03T18:41:17.541Z,13.10
2022-10-03T18:43:51.215Z,13.10
2022-10-03T18:46:17.901Z,13.20
2022-10-03T18:49:33.835Z,13.20
2022-10-03T18:55:30.545Z,13.20
2022-10-03T18:58:20.355Z,13.20
2022-10-03T19:00:53.355Z,13.20
2022-10-03T19:03:28.063Z,13.20
2022-10-03T19:06:18.553Z,13.20
2022-10-03T19:08:51.290Z,13.20
2022-10-03T19:11:42.637Z,13.20
2022-10-03T19:14:26.339Z,13.20
2022-10-03T19:17:30.630Z,13.20
2022-10-03T19:20:20.051Z,13.20
2022-10-03T19:23:26.743Z,13.20
2022-10-03T19:26:02.496Z,13.20
2022-10-03T21:04:47.995Z,12.90
2022-10-03T21:42:51.336Z,12.70
2022-10-03T21:45:21.810Z,12.60
2022-10-03T21:48:01.444Z,12.60
2022-10-03T21:50:38.254Z,12.60
2022-10-03T21:53:35.240Z,12.70
2022-10-03T21:56:16.691Z,12.70
2022-10-03T22:15:27.146Z,12.60
2022-10-03T22:17:59.472Z,12.60
2022-10-03T22:20:29.771Z,12.60
2022-10-03T22:23:25.978Z,12.60
2022-10-03T22:26:13.577Z,12.70
2022-10-03T22:28:55.187Z,12.70
2022-10-03T22:38:17.886Z,12.70
2022-10-03T22:40:51.331Z,12.70
2022-10-03T22:43:28.763Z,12.70
2022-10-03T22:46:05.835Z,12.70
2022-10-03T22:48:57.351Z,12.70
2022-10-03T22:51:27.671Z,12.70
2022-10-03T22:54:02.084Z,12.70
2022-10-03T22:59:31.120Z,12.60
2022-10-03T23:02:04.846Z,12.60
2022-10-03T23:04:42.880Z,12.70
2022-10-03T23:07:43.958Z,12.70
2022-10-03T23:10:30.670Z,12.60
2022-10-03T23:13:04.599Z,12.60
2022-10-03T23:15:35.849Z,12.60
2022-10-03T23:18:05.136Z,12.60
2022-10-03T23:20:48.283Z,12.60
2022-10-03T23:23:23.330Z,12.60
2022-10-03T23:25:55.647Z,12.60
2022-10-03T23:28:56.240Z,12.60
2022-10-03T23:32:00.177Z,12.60
2022-10-03T23:34:35.666Z,12.50
2022-10-03T23:37:11.432Z,12.50
2022-10-03T23:39:43.656Z,12.50
2022-10-03T23:42:10.325Z,12.50
2022-10-03T23:44:48.902Z,12.40
2022-10-03T23:47:20.056Z,12.40
2022-10-03T23:49:54.517Z,12.40
2022-10-03T23:52:46.085Z,12.40
2022-10-03T23:55:19.898Z,12.40
